Time;durP1;ratioP1;P1;durP2;ratioP2;P2;SDS_P1;SDS_P2;PMS_P1;PMS_P2;Temp;Humidity;BMP_temperature;BMP_pressure;BME280_temperature;BME280_humidity;BME280_pressure;Samples;Min_cycle;Max_cycle;Signal;HPM_P1;HPM_P2
2021/09/13 00:01:38;;;;;;;1074.10;981.05;;;;;;;11.42;63.63;93419.47;5127843;27;20092;-48
2021/09/13 00:04:04;;;;;;;1074.57;985.28;;;;;;;11.40;64.09;93419.28;5127884;27;20019;-48
2021/09/13 00:06:29;;;;;;;1060.95;972.80;;;;;;;11.41;64.36;93420.78;5127762;27;20038;-47
2021/09/13 00:08:55;;;;;;;1046.43;957.25;;;;;;;11.44;64.23;93422.41;5127846;27;20034;-47
2021/09/13 00:11:20;;;;;;;1035.30;951.20;;;;;;;11.19;64.58;93424.28;5127537;27;20028;-49
2021/09/13 00:13:46;;;;;;;1045.53;959.63;;;;;;;11.24;64.55;93420.59;5127576;27;20022;-47
2021/09/13 00:16:11;;;;;;;1042.72;956.92;;;;;;;11.22;64.08;93417.63;5127273;27;20023;-49
2021/09/13 00:18:36;;;;;;;1051.60;963.05;;;;;;;11.18;64.43;93426.31;5127411;27;20084;-47
2021/09/13 00:21:02;;;;;;;1084.28;993.35;;;;;;;11.21;64.38;93430.72;5114202;27;20051;-50
2021/09/13 00:23:27;;;;;;;1057.57;969.53;;;;;;;11.14;64.21;93420.41;5114217;28;20064;-48
2021/09/13 00:25:53;;;;;;;1024.70;940.30;;;;;;;11.08;64.27;93422.63;5116184;28;20052;-46
2021/09/13 00:28:18;;;;;;;1055.18;970.65;;;;;;;11.07;64.43;93420.41;5116986;27;20104;-46
2021/09/13 00:30:44;;;;;;;1018.78;936.20;;;;;;;11.05;64.84;93425.75;5115035;27;20071;-46
2021/09/13 00:33:09;;;;;;;1054.32;969.35;;;;;;;11.01;65.27;93417.09;5116088;28;20565;-46
2021/09/13 00:35:35;;;;;;;1021.88;939.28;;;;;;;10.90;65.25;93426.47;5105372;28;20408;-47
2021/09/13 00:38:00;;;;;;;1054.72;968.47;;;;;;;10.89;64.99;93424.28;5101300;28;20410;-45
2021/09/13 00:40:26;;;;;;;1024.95;944.15;;;;;;;10.87;65.52;93413.03;5103700;28;20026;-47
2021/09/13 00:42:51;;;;;;;1013.03;931.22;;;;;;;10.92;64.87;93420.41;5112652;28;20043;-46
2021/09/13 00:45:17;;;;;;;1039.50;956.05;;;;;;;10.88;65.41;93428.31;5112327;28;20415;-46
2021/09/13 00:47:42;;;;;;;1034.28;950.15;;;;;;;10.85;65.27;93429.44;5112756;28;20041;-45
2021/09/13 00:50:08;;;;;;;1051.68;969.75;;;;;;;10.77;65.00;93434.19;5112596;28;20015;-46
2021/09/13 00:52:34;;;;;;;1020.20;939.22;;;;;;;10.68;64.80;93427.94;5110939;27;20098;-46
2021/09/13 00:55:00;;;;;;;1043.63;960.75;;;;;;;10.72;65.36;93435.13;5112253;28;20094;-45
2021/09/13 00:57:26;;;;;;;1042.07;958.72;;;;;;;10.52;65.12;93411.91;5112300;28;20039;-46
2021/09/13 00:59:52;;;;;;;1038.28;955.65;;;;;;;10.73;65.21;93433.81;5111318;28;20065;-45
2021/09/13 01:02:17;;;;;;;1045.38;962.05;;;;;;;10.73;65.54;93428.31;5112296;27;20569;-46
2021/09/13 01:04:43;;;;;;;1037.88;955.33;;;;;;;10.64;65.71;93433.09;5112215;28;20066;-46
2021/09/13 01:07:08;;;;;;;1019.58;937.78;;;;;;;10.65;65.83;93433.81;5111055;28;20416;-47
2021/09/13 01:09:34;;;;;;;1013.45;932.60;;;;;;;10.53;65.63;93430.66;5110832;28;20030;-46
2021/09/13 01:12:00;;;;;;;1012.10;930.80;;;;;;;10.55;65.51;93432.88;5112203;28;20042;-47
2021/09/13 01:14:34;;;;;;;1032.05;951.00;;;;;;;10.57;65.14;93428.28;5112501;28;20465;-47
2021/09/13 01:16:59;;;;;;;1013.17;934.42;;;;;;;10.42;65.98;93436.53;5112087;28;20024;-48
2021/09/13 01:19:25;;;;;;;1033.30;953.08;;;;;;;10.49;65.92;93432.31;5112089;28;20393;-47
2021/09/13 01:21:51;;;;;;;1041.55;958.25;;;;;;;10.43;66.03;93440.78;5092068;28;20541;-47
2021/09/13 01:24:16;;;;;;;1020.72;940.65;;;;;;;10.44;65.79;93436.72;5090293;28;20416;-46
2021/09/13 01:26:42;;;;;;;996.97;919.55;;;;;;;10.46;65.33;93438.94;5091119;28;20036;-48
2021/09/13 01:29:07;;;;;;;1017.10;938.85;;;;;;;10.39;65.13;93442.41;5106295;28;20024;-48
2021/09/13 01:31:32;;;;;;;1021.33;940.75;;;;;;;10.17;65.38;93429.28;5103715;28;20020;-47
2021/09/13 01:33:58;;;;;;;995.33;920.65;;;;;;;10.29;65.87;93447.69;5091605;28;20043;-47
2021/09/13 01:36:23;;;;;;;1011.80;933.67;;;;;;;10.20;65.68;93447.50;5091807;28;20035;-47
2021/09/13 01:38:49;;;;;;;1023.55;942.70;;;;;;;10.17;66.80;93457.59;5091952;28;20031;-47
2021/09/13 01:41:14;;;;;;;1016.97;936.33;;;;;;;10.12;66.61;93439.19;5091749;28;20020;-46
2021/09/13 01:43:40;;;;;;;1001.65;923.58;;;;;;;10.13;66.42;93435.16;5091648;28;20055;-49
2021/09/13 01:46:05;;;;;;;1017.20;938.50;;;;;;;10.10;66.95;93446.50;5090607;28;20028;-48
2021/09/13 01:48:30;;;;;;;1020.33;939.35;;;;;;;9.79;67.13;93429.81;5090422;28;20024;-47
2021/09/13 01:50:56;;;;;;;1005.55;927.65;;;;;;;9.91;67.33;93444.03;5091721;28;20035;-47
2021/09/13 01:53:21;;;;;;;998.13;920.53;;;;;;;9.80;67.79;93455.38;5091834;28;20016;-47
2021/09/13 01:55:47;;;;;;;1023.28;941.58;;;;;;;9.86;67.42;93450.44;5090871;28;20023;-48
2021/09/13 01:58:12;;;;;;;1012.47;932.63;;;;;;;9.82;67.49;93447.28;5091100;28;20027;-47
2021/09/13 02:00:38;;;;;;;1026.30;943.28;;;;;;;9.73;67.86;93456.06;5090821;28;20157;-48
2021/09/13 02:03:03;;;;;;;1029.45;947.65;;;;;;;9.81;68.37;93457.56;5091497;28;20517;-48
2021/09/13 02:05:29;;;;;;;1009.15;928.28;;;;;;;9.74;68.19;93454.78;5091493;28;20467;-49
2021/09/13 02:07:54;;;;;;;1024.63;944.42;;;;;;;9.71;68.41;93456.63;5091582;28;20028;-48
2021/09/13 02:10:20;;;;;;;1014.20;933.67;;;;;;;9.70;67.72;93451.66;5091402;28;20023;-47
2021/09/13 02:12:45;;;;;;;1011.97;932.47;;;;;;;9.72;67.41;93460.84;5091057;28;20027;-47
2021/09/13 02:15:12;;;;;;;1032.95;951.45;;;;;;;9.72;67.34;93457.34;5091370;28;20020;-48
2021/09/13 02:17:37;;;;;;;1009.17;930.22;;;;;;;9.72;67.21;93460.84;5090977;28;20110;-47
2021/09/13 02:20:03;;;;;;;1002.13;922.92;;;;;;;9.76;67.38;93460.50;5095974;28;20035;-47
2021/09/13 02:22:29;;;;;;;1016.25;936.00;;;;;;;9.68;67.30;93440.44;5111467;28;20023;-46
2021/09/13 02:24:54;;;;;;;1018.55;940.20;;;;;;;9.70;66.92;93451.66;5100337;28;20083;-48
2021/09/13 02:27:19;;;;;;;1014.92;936.38;;;;;;;9.62;67.98;93451.59;5091212;28;20023;-46
2021/09/13 02:29:45;;;;;;;1010.85;931.85;;;;;;;9.60;67.62;93456.16;5090682;28;20012;-46
2021/09/13 02:32:10;;;;;;;1011.22;931.78;;;;;;;9.46;68.08;93460.31;5094722;28;20481;-48
2021/09/13 02:34:36;;;;;;;1015.53;934.85;;;;;;;9.51;67.46;93456.66;5090501;28;20421;-47
2021/09/13 02:37:01;;;;;;;1019.17;939.40;;;;;;;9.54;67.59;93447.31;5090863;28;20032;-49
2021/09/13 02:39:27;;;;;;;1007.13;928.45;;;;;;;9.37;68.72;93452.53;5089897;28;20030;-46
2021/09/13 02:41:52;;;;;;;1024.22;942.58;;;;;;;9.34;68.49;93454.34;5090904;28;20413;-48
2021/09/13 02:44:18;;;;;;;1006.00;927.05;;;;;;;9.48;68.54;93460.50;5090367;28;20050;-46
2021/09/13 02:46:44;;;;;;;1016.78;933.13;;;;;;;9.28;69.00;93437.22;5090456;28;20489;-47
2021/09/13 02:49:09;;;;;;;1016.15;936.63;;;;;;;9.39;67.97;93447.22;5090397;28;20031;-48
2021/09/13 02:51:35;;;;;;;1030.65;950.70;;;;;;;9.40;67.94;93457.69;5090765;28;20077;-47
2021/09/13 02:54:01;;;;;;;1005.95;929.10;;;;;;;9.50;67.69;93457.94;5090377;28;20032;-46
2021/09/13 02:56:26;;;;;;;1031.90;949.75;;;;;;;9.43;68.04;93461.38;5090502;28;20032;-47
2021/09/13 02:58:52;;;;;;;1014.28;934.58;;;;;;;9.37;67.95;93458.03;5090120;28;20031;-48
2021/09/13 03:01:17;;;;;;;1001.72;925.53;;;;;;;9.33;67.85;93455.66;5090213;28;20028;-47
2021/09/13 03:03:43;;;;;;;998.17;920.70;;;;;;;9.38;67.87;93463.00;5090309;28;20065;-47
2021/09/13 03:06:09;;;;;;;1002.45;922.40;;;;;;;9.33;67.54;93466.66;5090199;28;20024;-48
2021/09/13 03:08:35;;;;;;;1005.72;928.38;;;;;;;9.35;67.28;93466.84;5090476;28;20140;-48
2021/09/13 03:11:02;;;;;;;1007.75;928.80;;;;;;;9.35;67.32;93463.34;5090303;28;20492;-47
2021/09/13 03:13:28;;;;;;;1006.28;926.53;;;;;;;9.32;67.54;93472.69;5090434;28;20095;-46
2021/09/13 03:15:54;;;;;;;997.75;920.60;;;;;;;9.20;67.64;93471.50;5090293;28;20154;-47
2021/09/13 03:18:19;;;;;;;1003.25;926.58;;;;;;;9.09;68.45;93475.28;5090390;28;20103;-46
2021/09/13 03:20:44;;;;;;;978.70;902.92;;;;;;;9.02;68.56;93479.47;5093377;28;20024;-46
2021/09/13 03:23:10;;;;;;;1040.13;961.70;;;;;;;8.87;69.29;93471.06;5090271;28;20020;-47
2021/09/13 03:25:35;;;;;;;1039.45;953.30;;;;;;;8.65;69.86;93462.56;5090299;28;20483;-46
2021/09/13 03:28:01;;;;;;;1025.32;945.63;;;;;;;8.70;69.94;93478.97;5090314;28;20484;-46
2021/09/13 03:30:26;;;;;;;1043.07;960.38;;;;;;;8.80;69.56;93474.47;5090265;28;20024;-49
2021/09/13 03:32:51;;;;;;;1028.93;945.88;;;;;;;8.85;69.52;93470.13;5093473;28;20530;-46
2021/09/13 03:35:17;;;;;;;1048.38;968.53;;;;;;;8.84;69.58;93477.63;5089599;28;20092;-46
2021/09/13 03:37:42;;;;;;;1024.43;946.28;;;;;;;8.93;68.55;93468.91;5089511;28;20024;-47
2021/09/13 03:40:09;;;;;;;1040.85;958.20;;;;;;;8.82;68.74;93460.91;5089955;28;20028;-47
2021/09/13 03:42:34;;;;;;;1026.32;944.78;;;;;;;8.80;69.24;93476.47;5089980;28;20020;-46
2021/09/13 03:44:59;;;;;;;1007.75;928.67;;;;;;;8.77;69.29;93478.28;5090060;28;20039;-48
2021/09/13 03:47:25;;;;;;;1048.22;960.13;;;;;;;8.91;69.13;93478.97;5097188;28;20027;-47
2021/09/13 03:49:50;;;;;;;1034.22;953.53;;;;;;;8.88;69.11;93482.81;5107355;28;20028;-47
2021/09/13 03:52:16;;;;;;;1037.82;956.33;;;;;;;8.75;69.01;93486.34;5098413;28;20103;-48
2021/09/13 03:54:41;;;;;;;1020.17;939.40;;;;;;;8.77;68.94;93483.78;5109788;28;20111;-46
2021/09/13 03:57:07;;;;;;;1032.05;950.55;;;;;;;8.71;68.81;93476.94;5109192;28;20022;-48
2021/09/13 03:59:33;;;;;;;1022.83;943.85;;;;;;;8.79;68.84;93480.53;5110477;28;20034;-47
2021/09/13 04:01:59;;;;;;;1025.07;944.55;;;;;;;8.71;69.09;93485.19;5109998;28;20536;-46
2021/09/13 04:04:28;;;;;;;1039.95;959.88;;;;;;;8.80;68.60;93488.25;5110260;28;20008;-47
2021/09/13 04:07:02;;;;;;;1035.03;953.65;;;;;;;8.51;68.97;93458.41;5108848;28;20027;-47
2021/09/13 04:11:57;;;;;;;1031.13;948.45;;;;;;;8.71;68.66;93490.69;5112530;28;20027;-48
2021/09/13 04:14:27;;;;;;;1037.15;954.55;;;;;;;8.61;69.47;93489.69;5112185;28;20020;-47
2021/09/13 04:16:53;;;;;;;1040.13;958.95;;;;;;;8.57;69.43;93498.28;5105709;28;20539;-47
2021/09/13 04:19:18;;;;;;;1029.70;946.40;;;;;;;8.71;69.44;93490.69;5092117;28;20020;-48
2021/09/13 04:21:45;;;;;;;1020.50;941.13;;;;;;;8.74;69.26;93495.91;5111909;28;20530;-48
2021/09/13 04:24:11;;;;;;;1007.60;924.83;;;;;;;8.80;68.40;93498.50;5112005;27;20015;-47
2021/09/13 04:26:36;;;;;;;1047.22;962.40;;;;;;;8.70;68.13;93489.97;5113861;28;20024;-46
2021/09/13 04:29:02;;;;;;;1042.60;960.50;;;;;;;8.70;69.10;93495.50;5113829;28;20099;-48
2021/09/13 04:31:27;;;;;;;1034.13;954.40;;;;;;;8.69;69.02;93505.00;5105898;28;20035;-46
2021/09/13 04:33:53;;;;;;;1030.82;948.22;;;;;;;8.65;69.11;93507.34;5093020;28;20475;-47
2021/09/13 04:36:19;;;;;;;1023.63;941.72;;;;;;;8.62;69.54;93511.16;5093253;28;20027;-47
2021/09/13 04:38:45;;;;;;;1002.03;922.55;;;;;;;8.76;69.05;93509.13;5093309;28;20511;-48
2021/09/13 04:41:10;;;;;;;1036.63;955.40;;;;;;;8.83;69.17;93511.22;5093181;28;20425;-47
2021/09/13 04:43:35;;;;;;;1038.05;955.38;;;;;;;8.96;69.09;93511.91;5093157;28;20492;-47
2021/09/13 04:46:01;;;;;;;1010.88;929.97;;;;;;;8.94;69.16;93503.41;5092591;28;20038;-47
2021/09/13 04:48:27;;;;;;;1017.65;935.97;;;;;;;9.08;68.33;93504.09;5092317;28;20106;-47
2021/09/13 04:50:52;;;;;;;1021.03;940.88;;;;;;;9.18;68.16;93504.38;5093157;28;20024;-48
2021/09/13 04:53:19;;;;;;;1025.25;945.05;;;;;;;9.02;68.27;93487.72;5092892;28;20020;-48
2021/09/13 04:55:45;;;;;;;1022.75;943.05;;;;;;;9.18;68.26;93507.13;5092907;28;20036;-47
2021/09/13 04:58:10;;;;;;;1010.90;931.63;;;;;;;9.18;68.45;93510.63;5093003;28;20097;-47
2021/09/13 05:00:35;;;;;;;1030.22;949.53;;;;;;;9.13;69.34;93508.72;5092580;28;20024;-48
2021/09/13 05:03:01;;;;;;;1029.95;947.42;;;;;;;9.16;69.57;93507.63;5092387;28;20064;-48
2021/09/13 05:05:27;;;;;;;1003.88;924.08;;;;;;;9.26;69.79;93516.19;5092495;28;20051;-47
2021/09/13 05:07:52;;;;;;;1019.08;933.97;;;;;;;9.38;69.74;93514.63;5092742;28;20031;-47
2021/09/13 05:10:18;;;;;;;1066.07;974.67;;;;;;;9.28;70.47;93502.59;5092634;28;20032;-47
2021/09/13 05:12:43;;;;;;;1020.67;938.95;;;;;;;9.28;71.00;93522.63;5095439;28;20016;-48
2021/09/13 05:15:09;;;;;;;1030.55;946.13;;;;;;;9.46;71.37;93518.19;5112820;28;20046;-47
2021/09/13 05:17:35;;;;;;;1046.82;960.42;;;;;;;9.43;71.37;93511.72;5112990;28;20019;-47
2021/09/13 05:20:00;;;;;;;1040.05;956.28;;;;;;;9.33;71.13;93496.97;5108350;28;20035;-47
2021/09/13 05:22:25;;;;;;;1056.40;970.47;;;;;;;9.75;70.84;93522.44;5092036;28;20020;-47
2021/09/13 05:24:51;;;;;;;1045.93;959.00;;;;;;;9.79;71.13;93512.53;5095326;28;20027;-47
2021/09/13 05:27:16;;;;;;;1052.25;963.58;;;;;;;10.04;69.43;93528.69;5112754;28;20035;-48
2021/09/13 05:29:42;;;;;;;1045.93;959.35;;;;;;;10.16;70.43;93527.84;5112458;28;20026;-47
2021/09/13 05:32:08;;;;;;;1059.38;969.78;;;;;;;10.24;69.84;93523.13;5103202;28;20027;-47
2021/09/13 05:34:33;;;;;;;1061.63;971.72;;;;;;;10.46;69.24;93519.69;5091701;28;20036;-47
2021/09/13 05:36:58;;;;;;;1046.93;960.35;;;;;;;10.51;69.25;93529.09;5091163;28;20028;-46
2021/09/13 05:39:24;;;;;;;1028.38;944.20;;;;;;;10.61;69.00;93528.03;5091896;28;20024;-46
2021/09/13 05:41:49;;;;;;;1061.07;971.20;;;;;;;10.74;69.10;93523.69;5091713;28;20023;-48
2021/09/13 05:44:15;;;;;;;1048.85;961.65;;;;;;;10.80;70.24;93524.25;5090456;28;20020;-49
2021/09/13 05:46:41;;;;;;;1047.47;961.38;;;;;;;10.82;69.95;93518.91;5091770;28;20023;-48
2021/09/13 05:49:10;;;;;;;1066.22;977.35;;;;;;;10.82;70.11;93527.19;5091536;28;20027;-48
2021/09/13 05:51:42;;;;;;;;;;;;;;;10.95;70.45;93524.28;5092549;28;20027;-47
2021/09/13 05:54:08;;;;;;;1007.45;926.60;;;;;;;11.01;70.20;93516.53;5091769;28;19908;-48
2021/09/13 05:56:33;;;;;;;1046.45;959.88;;;;;;;11.01;70.49;93524.84;5091858;28;20028;-47
2021/09/13 05:58:59;;;;;;;1094.30;999.17;;;;;;;11.18;70.03;93528.56;5091690;28;20028;-47
2021/09/13 06:01:24;;;;;;;1051.30;964.85;;;;;;;11.40;69.96;93521.56;5091731;28;20027;-48
2021/09/13 06:03:50;;;;;;;1057.00;970.10;;;;;;;11.52;68.82;93527.47;5091576;28;20073;-48
2021/09/13 06:06:15;;;;;;;1054.97;965.45;;;;;;;11.57;69.21;93524.50;5091168;28;20031;-47
2021/09/13 06:08:40;;;;;;;1062.95;971.80;;;;;;;11.91;70.14;93519.34;5091302;28;20020;-48
2021/09/13 06:11:06;;;;;;;1059.20;968.80;;;;;;;12.04;69.17;93519.13;5091191;28;20019;-47
2021/09/13 06:13:32;;;;;;;1056.78;967.40;;;;;;;12.11;68.82;93521.16;5091206;28;20091;-47
2021/09/13 06:15:57;;;;;;;1035.00;946.67;;;;;;;12.27;69.12;93524.63;5091119;28;20077;-48
2021/09/13 06:18:23;;;;;;;1067.60;972.55;;;;;;;12.50;68.12;93528.06;5091088;28;20020;-48
2021/09/13 06:20:48;;;;;;;1050.15;955.60;;;;;;;12.73;68.49;93523.16;5102039;28;20031;-48
2021/09/13 06:23:15;;;;;;;1023.13;930.63;;;;;;;12.96;67.53;93525.81;5111167;28;20073;-47
2021/09/13 06:25:40;;;;;;;1033.35;944.58;;;;;;;13.02;65.60;93525.59;5111333;28;20024;-47
2021/09/13 06:28:06;;;;;;;1042.57;948.22;;;;;;;13.06;66.78;93537.09;5111238;28;20106;-47
2021/09/13 06:30:31;;;;;;;1020.70;927.45;;;;;;;13.28;67.42;93530.63;5111469;28;20049;-48
2021/09/13 06:32:57;;;;;;;1043.15;945.65;;;;;;;13.38;66.70;93540.56;5089985;28;20047;-48
2021/09/13 06:35:22;;;;;;;1074.57;972.63;;;;;;;13.50;66.98;93538.06;5089490;28;20068;-47
2021/09/13 06:37:48;;;;;;;1049.97;953.50;;;;;;;13.70;65.01;93531.47;5090873;28;20031;-48
2021/09/13 06:40:14;;;;;;;1028.65;933.95;;;;;;;13.80;64.26;93517.66;5090735;28;20110;-48
2021/09/13 06:42:39;;;;;;;1008.83;917.30;;;;;;;14.12;63.70;93534.97;5090700;28;20110;-48
2021/09/13 06:45:19;;;;;;;1030.50;934.75;;;;;;;14.28;63.57;93533.50;5089942;28;20485;-48
2021/09/13 06:47:44;;;;;;;1016.40;921.17;;;;;;;14.61;63.31;93530.59;5090727;28;20535;-49
2021/09/13 06:50:19;;;;;;;1056.60;946.45;;;;;;;14.89;61.02;93525.25;5090690;28;20017;-48
2021/09/13 06:52:48;;;;;;;1027.78;919.13;;;;;;;15.32;58.90;93534.13;5090861;28;20019;-49
2021/09/13 06:55:14;;;;;;;1036.40;916.03;;;;;;;15.70;57.39;93532.28;5090513;28;20024;-48
2021/09/13 06:57:40;;;;;;;991.80;877.83;;;;;;;16.17;56.14;93528.16;5090643;28;20092;-48
2021/09/13 07:00:11;;;;;;;1054.32;830.40;;;;;;;16.92;53.01;93528.06;5090669;28;20020;-49
2021/09/13 07:02:38;;;;;;;1413.07;940.67;;;;;;;17.44;50.00;93529.75;5090467;28;20035;-49
2021/09/13 07:05:06;;;;;;;1466.88;999.90;;;;;;;18.14;49.24;93528.31;5090297;28;20028;-49
2021/09/13 07:24:25;;;;;;;1019.90;941.95;;;;;;;31.15;23.01;93528.63;5128273;27;20618;-54
2021/09/13 07:26:50;;;;;;;919.53;854.55;;;;;;;31.55;22.90;93528.66;5128601;27;20110;-50
2021/09/13 07:29:16;;;;;;;828.15;773.08;;;;;;;32.16;21.81;93528.19;5128513;27;20544;-53
2021/09/13 07:31:41;;;;;;;823.05;767.35;;;;;;;32.30;21.38;93512.66;5127905;27;20021;-53
2021/09/13 07:34:07;;;;;;;821.67;767.85;;;;;;;32.85;21.13;93529.16;5128206;27;20076;-54
2021/09/13 07:36:33;;;;;;;685.20;643.53;;;;;;;33.06;19.77;93522.28;5128446;27;20051;-53
2021/09/13 07:38:59;;;;;;;722.25;677.60;;;;;;;32.90;20.49;93534.22;5128474;27;20460;-52
2021/09/13 07:41:24;;;;;;;731.45;686.65;;;;;;;33.29;20.22;93523.94;5128339;27;20027;-52
2021/09/13 07:43:50;;;;;;;711.08;666.70;;;;;;;33.71;20.23;93528.66;5128279;27;20550;-52
2021/09/13 07:46:15;;;;;;;650.10;611.00;;;;;;;34.50;19.24;93529.97;5125111;27;20606;-52
2021/09/13 07:48:41;;;;;;;683.75;641.50;;;;;;;34.61;19.25;93520.72;5125526;28;20023;-53
2021/09/13 07:51:07;;;;;;;573.72;539.67;;;;;;;35.41;18.74;93520.31;5128002;27;20403;-54
2021/09/13 07:53:33;;;;;;;594.20;559.22;;;;;;;35.09;18.73;93523.09;5127943;27;20034;-52
2021/09/13 07:55:58;;;;;;;568.95;535.83;;;;;;;35.09;18.33;93523.09;5128053;27;20484;-55
2021/09/13 07:58:23;;;;;;;547.83;516.30;;;;;;;35.36;18.17;93527.50;5127961;27;20024;-55
2021/09/13 08:00:49;;;;;;;539.97;508.33;;;;;;;34.81;18.21;93526.56;5127958;27;20084;-52
2021/09/13 08:03:14;;;;;;;505.08;475.80;;;;;;;33.40;19.39;93527.63;5127933;27;20022;-51
2021/09/13 08:05:40;;;;;;;442.80;418.65;;;;;;;33.71;19.64;93535.09;5127564;27;20456;-50
2021/09/13 08:08:05;;;;;;;414.80;392.48;;;;;;;34.33;18.98;93529.88;5127455;27;20084;-54
2021/09/13 08:10:31;;;;;;;490.85;462.75;;;;;;;35.21;19.34;93525.31;5127136;27;20022;-54
2021/09/13 08:12:56;;;;;;;497.10;468.80;;;;;;;34.68;19.32;93533.69;5127638;27;20019;-53
2021/09/13 08:15:23;;;;;;;472.52;445.90;;;;;;;34.88;18.86;93530.19;5127415;27;20085;-54
2021/09/13 08:17:49;;;;;;;497.48;468.95;;;;;;;35.48;18.69;93527.53;5127609;27;20054;-54
2021/09/13 08:20:14;;;;;;;489.25;460.63;;;;;;;34.63;18.69;93531.50;5127611;27;20508;-53
2021/09/13 08:22:40;;;;;;;476.13;449.35;;;;;;;35.00;18.26;93519.50;5109468;27;20050;-55
2021/09/13 08:25:05;;;;;;;463.30;435.33;;;;;;;35.01;18.16;93520.22;5093534;28;20035;-53
2021/09/13 08:27:31;;;;;;;413.38;390.85;;;;;;;35.12;18.09;93512.34;5093186;28;20024;-54
2021/09/13 08:29:56;;;;;;;426.15;402.48;;;;;;;35.65;18.15;93526.13;5092960;28;20020;-53
2021/09/13 08:32:22;;;;;;;451.88;427.50;;;;;;;35.27;18.57;93510.97;5092976;28;20042;-54
2021/09/13 08:34:47;;;;;;;416.08;393.33;;;;;;;34.93;18.14;93482.88;5092900;28;20024;-54
2021/09/13 08:37:13;;;;;;;395.67;374.35;;;;;;;35.67;17.91;93516.81;5093202;28;20024;-55
2021/09/13 08:39:38;;;;;;;461.23;435.95;;;;;;;35.02;18.49;93516.63;5093223;28;20424;-52
2021/09/13 08:42:04;;;;;;;436.77;413.27;;;;;;;35.59;18.47;93516.78;5092302;28;20012;-54
2021/09/13 08:44:32;;;;;;;444.85;420.55;;;;;;;36.15;17.72;93516.81;5092775;28;20020;-53
2021/09/13 08:47:07;;;;;;;432.88;409.15;;;;;;;36.79;16.82;93510.22;5093033;28;20055;-54
2021/09/13 08:49:36;;;;;;;416.60;393.48;;;;;;;37.65;15.85;93514.16;5093045;28;20027;-55
2021/09/13 08:52:04;;;;;;;424.83;400.73;;;;;;;38.01;15.96;93510.31;5092934;28;20023;-53
2021/09/13 08:54:31;;;;;;;392.83;371.40;;;;;;;38.25;14.97;93510.81;5092562;28;20031;-54
2021/09/13 08:57:04;;;;;;;407.85;386.08;;;;;;;38.91;14.69;93512.31;5092557;28;20048;-55
2021/09/13 08:59:33;;;;;;;385.40;364.20;;;;;;;39.47;14.49;93505.13;5092524;28;20508;-55
2021/09/13 09:02:00;;;;;;;304.45;288.17;;;;;;;39.75;13.72;93493.16;5092593;28;20012;-55
2021/09/13 09:04:26;;;;;;;300.13;284.63;;;;;;;39.56;14.09;93499.97;5092646;28;20099;-54
2021/09/13 09:06:51;;;;;;;304.95;288.63;;;;;;;39.21;14.53;93483.09;5092382;28;20053;-55
2021/09/13 09:09:19;;;;;;;303.92;288.33;;;;;;;38.59;15.10;93483.81;5092612;28;20027;-54
2021/09/13 09:12:02;;;;;;;267.00;253.00;;;;;;;38.36;15.29;93491.25;5092162;28;20020;-52
2021/09/13 09:14:48;;;;;;;239.80;227.52;;;;;;;37.93;15.13;93488.75;5091981;28;20047;-52
2021/09/13 09:17:20;;;;;;;234.70;222.57;;;;;;;38.06;15.24;93489.34;5092131;28;20399;-53
2021/09/13 09:19:46;;;;;;;239.27;227.45;;;;;;;38.38;15.13;93465.97;5092071;28;20493;-54
2021/09/13 09:22:26;;;;;;;223.20;211.98;;;;;;;38.97;14.33;93480.50;5109852;28;20023;-56
2021/09/13 09:24:52;;;;;;;237.07;225.07;;;;;;;39.75;14.18;93480.88;5112758;28;20411;-54
2021/09/13 09:27:18;;;;;;;242.52;230.05;;;;;;;39.84;13.55;93474.25;5112570;28;20026;-54
2021/09/13 09:29:43;;;;;;;248.38;235.68;;;;;;;39.47;14.06;93487.06;5112336;28;20408;-54
2021/09/13 09:32:09;;;;;;;266.95;253.50;;;;;;;39.57;14.20;93478.28;5112366;28;20011;-55
2021/09/13 09:34:36;;;;;;;269.13;255.50;;;;;;;39.70;14.12;93476.66;5112151;28;20031;-56
2021/09/13 09:37:09;;;;;;;268.00;254.40;;;;;;;40.11;13.34;93474.56;5111511;28;20030;-56
2021/09/13 09:39:54;;;;;;;239.45;227.25;;;;;;;40.49;13.29;93473.16;5112141;28;20023;-56
2021/09/13 09:42:31;;;;;;;238.43;226.52;;;;;;;40.63;13.19;93461.31;5112403;28;20031;-56
2021/09/13 09:44:58;;;;;;;251.73;239.30;;;;;;;40.03;14.01;93468.88;5112032;28;20026;-54
2021/09/13 09:47:25;;;;;;;202.57;192.20;;;;;;;39.76;13.90;93462.81;5112137;28;20107;-56
2021/09/13 09:49:55;;;;;;;234.55;223.15;;;;;;;38.79;14.21;93472.03;5111454;28;20023;-56
2021/09/13 09:52:38;;;;;;;220.63;209.52;;;;;;;37.99;14.98;93467.09;5111861;28;20039;-53
2021/09/13 09:55:18;;;;;;;207.68;197.30;;;;;;;37.38;14.99;93467.53;5111833;28;20030;-55
2021/09/13 09:58:04;;;;;;;228.32;214.43;;;;;;;36.93;16.61;93472.06;5111832;28;20037;-54
2021/09/13 10:00:30;;;;;;;153.20;145.30;;;;;;;37.86;15.59;93467.19;5111383;28;20389;-56
2021/09/13 10:02:56;;;;;;;135.90;128.15;;;;;;;38.49;13.79;93478.84;5100907;27;20034;-51
2021/09/13 10:05:24;;;;;;;98.03;92.60;;;;;;;38.04;13.43;93463.41;5100792;28;20478;-57
2021/09/13 10:07:50;;;;;;;89.63;85.20;;;;;;;38.20;12.50;93469.03;5099308;28;20363;-57
2021/09/13 10:10:18;;;;;;;72.15;68.85;;;;;;;38.21;12.09;93464.69;5100121;28;20087;-57
2021/09/13 10:12:44;;;;;;;60.45;57.40;;;;;;;38.54;11.06;93471.59;5107244;28;20020;-53
2021/09/13 10:15:10;;;;;;;75.72;72.07;;;;;;;37.73;12.21;93470.84;5100866;28;20027;-56
2021/09/13 10:17:37;;;;;;;61.35;58.35;;;;;;;37.47;13.02;93463.13;5101080;28;20051;-55
2021/09/13 10:20:04;;;;;;;57.28;54.25;;;;;;;38.46;12.56;93471.69;5098602;28;20024;-55
2021/09/13 10:22:30;;;;;;;39.80;37.15;;;;;;;37.74;10.09;93455.72;5100255;28;20067;-55
2021/09/13 10:24:56;;;;;;;76.90;72.22;;;;;;;38.08;12.01;93448.97;5100257;28;20110;-54
2021/09/13 10:27:21;;;;;;;55.75;52.85;;;;;;;37.89;12.54;93454.19;5098581;28;20132;-54
2021/09/13 10:29:47;;;;;;;61.30;57.95;;;;;;;37.94;13.32;93452.00;5099797;28;20473;-55
2021/09/13 10:32:16;;;;;;;60.13;57.05;;;;;;;38.51;12.80;93449.97;5099880;28;20076;-55
2021/09/13 10:34:42;;;;;;;63.75;60.30;;;;;;;37.99;12.98;93450.47;5100657;28;20035;-54
2021/09/13 10:37:24;;;;;;;68.13;64.80;;;;;;;36.24;14.03;93454.28;5097751;28;20103;-55
2021/09/13 10:40:03;;;;;;;63.70;60.28;;;;;;;36.38;14.38;93452.09;5093730;28;20077;-56
2021/09/13 10:42:32;;;;;;;57.33;54.28;;;;;;;36.22;14.24;93443.50;5098836;28;20031;-50
2021/09/13 10:45:13;;;;;;;54.58;51.88;;;;;;;35.22;15.17;93449.94;5099334;28;20531;-55
2021/09/13 10:47:40;;;;;;;51.85;49.22;;;;;;;35.61;14.87;93444.97;5100071;27;20027;-53
2021/09/13 10:50:16;;;;;;;29.20;27.33;;;;;;;36.54;11.81;93454.19;5098686;28;20047;-56
2021/09/13 10:52:42;;;;;;;42.35;39.75;;;;;;;37.02;13.11;93433.88;5098506;28;20515;-56
2021/09/13 10:55:08;;;;;;;47.67;45.08;;;;;;;36.87;13.24;93438.25;5098083;28;20028;-54
2021/09/13 10:57:52;;;;;;;51.20;48.63;;;;;;;35.77;14.85;93444.97;5099781;28;20144;-54
2021/09/13 11:00:38;;;;;;;46.65;44.10;;;;;;;35.30;14.97;93444.22;5100020;28;20043;-54
2021/09/13 11:03:22;;;;;;;42.08;39.88;;;;;;;35.19;14.74;93439.91;5100483;28;20042;-55
2021/09/13 11:06:06;;;;;;;38.97;37.08;;;;;;;35.57;14.25;93439.97;5099480;28;20030;-54
2021/09/13 11:08:37;;;;;;;32.97;31.25;;;;;;;36.49;12.99;93441.28;5098799;28;20032;-54
2021/09/13 11:11:13;;;;;;;45.20;42.80;;;;;;;36.52;13.48;93439.84;5098427;28;20056;-55
2021/09/13 11:13:40;;;;;;;49.00;46.03;;;;;;;37.16;13.80;93442.44;5098667;28;20020;-54
2021/09/13 11:16:06;;;;;;;52.13;49.38;;;;;;;37.40;13.18;93435.09;5100416;28;20073;-55
2021/09/13 11:18:38;;;;;;;48.58;45.97;;;;;;;36.49;13.34;93433.38;5099177;28;20032;-56
2021/09/13 11:21:18;;;;;;;50.72;47.85;;;;;;;34.81;14.62;93437.63;5098069;28;20111;-54